ADDS METAR Data INFO
IDs: Format: Raw Decoded Include TAF

Data at: 0317 UTC 20 Oct 2017

Region: TOP
KATL 200252Z 00000KT 10SM CLR 16/08 A3026 RMK AO2 SLP244 T01560078 53007

KBOS 200254Z 23014KT 10SM CLR 15/10 A3000 RMK AO2 SLP156 T01500100 58001

KBWI 200254Z 25003KT 10SM FEW250 10/09 A3015 RMK AO2 SLP209 T01000094 53003

KCLE 200251Z 25004KT 10SM SCT250 14/10 A3019 RMK AO2 SLP221 T01440100 53006

KCLT 200252Z 00000KT 10SM FEW250 10/09 A3025 RMK AO2 SLP242 T01000089 51006

KCVG 200252Z 21005KT 10SM BKN250 13/11 A3023 RMK AO2 SLP232 T01330111 51005

KDCA 200252Z 21005KT 10SM FEW250 15/12 A3017 RMK AO2 SLP215 T01500117 51005

KDEN 200253Z 18011KT 10SM SCT220 11/M02 A2991 RMK AO2 SLP085 T01111017 50000

KDFW 200253Z 13010KT 10SM BKN300 22/12 A3007 RMK AO2 SLP174 T02220122 52005

KDTW 200253Z 31004KT 10SM SCT250 13/01 A3018 RMK AO2 SLP222 T01280006 52009

KEWR 200251Z 24011KT 10SM FEW250 16/07 A3009 RMK AO2 SLP190 T01610072 53001 $

KFLL 200253Z 07010KT 10SM FEW026 FEW045 27/23 A3003 RMK AO2 SLP169 T02670233 51016

KIAD 200252Z 16003KT 10SM FEW250 10/09 A3017 RMK AO2 SLP216 T01000089 53007

KIAH 200253Z 10006KT 10SM FEW085 BKN140 BKN250 21/16 A3010 RMK AO2 SLP193 T02110161 53008

KJFK 200251Z 23011KT 10SM FEW250 17/11 A3010 RMK AO2 SLP193 T01670106 50000

KLAS 200256Z 20010KT 10SM CLR 27/M04 A2974 RMK AO2 SLP050 T02721039 53003

KLAX 200253Z 14005KT 10SM FEW020 19/16 A2988 RMK AO2 SLP116 T01890161 53004

KLGA 200251Z 23008KT 10SM FEW250 18/08 A3008 RMK AO2 SLP186 T01830078 50001

KMCO 200253Z 03009KT 10SM FEW020 FEW055 23/22 A3011 RMK AO2 SLP195 60001 T02280222 53005 $

KMDW 200253Z 15005KT 10SM SCT250 15/04 A3016 RMK AO2 SLP210 T01500039 56004

KMEM 200254Z 00000KT 10SM SCT250 16/11 A3021 RMK AO2 SLP229 T01610106 52007

KMIA 200253Z 06008KT 10SM SCT025 BKN065 BKN120 OVC200 27/24 A3004 RMK AO2 RAB24E40 SLP172 P0002 60006 T02720239 51015

KMSP 200253Z 14007KT 10SM CLR 14/04 A2994 RMK AO2 SLP141 T01440039 56004

KORD 200251Z 16005KT 10SM BKN250 12/03 A3015 RMK AO2 SLP210 T01220033 58003

KPDX 200310Z 17010KT 10SM FEW024 SCT070 OVC140 11/09 A2959 RMK AO2 T01110094

KPHL 200254Z 23011KT 10SM CLR 16/09 A3013 RMK AO2 SLP204 T01610094 52001

KPHX 200251Z VRB03KT 10SM SCT250 30/07 A2974 RMK AO2 SLP052 T03000067 53012

KPIT 200251Z 23006KT 10SM BKN250 16/08 A3018 RMK AO2 SLP225 T01610083 51003

KSAN 200251Z 29003KT 10SM FEW019 FEW027 BKN240 21/16 A2993 RMK AO2 SLP134 T02060161 53013

KSEA 200253Z 15009KT 10SM -RA FEW007 BKN040 BKN050 10/09 A2951 RMK AO2 SLP998 P0005 60012 T01000089 55002

KSFO 200256Z 19011KT 10SM FEW010 SCT048 OVC065 17/14 A2989 RMK AO2 DZB06E13 SLP121 P0000 60000 T01670139 56008

KSLC 200254Z 15008KT 10SM SCT110 BKN150 16/02 A2980 RMK AO2 SLP065 T01610022 58008

KSTL 200251Z 16006KT 10SM FEW250 20/11 A3015 RMK AO2 SLP205 T02000106 52003

KTPA 200253Z 04007KT 10SM CLR 25/21 A3011 RMK AO2 SLP195 T02500206 53012 $